sensor_id;sensor_type;location;lat;lon;timestamp;pressure;altitude;pressure_sealevel;temperature;humidity
51926;BME280;37952;51.938;15.480;2022-07-01T00:02:35;99424.39;;;24.27;61.34
51926;BME280;37952;51.938;15.480;2022-07-01T00:05:38;99422.16;;;24.29;61.29
51926;BME280;37952;51.938;15.480;2022-07-01T00:08:41;99427.94;;;24.29;61.39
51926;BME280;37952;51.938;15.480;2022-07-01T00:11:44;99420.41;;;24.29;61.39
51926;BME280;37952;51.938;15.480;2022-07-01T00:14:47;99418.33;;;24.29;61.44
51926;BME280;37952;51.938;15.480;2022-07-01T00:17:50;99413.44;;;24.26;61.88
51926;BME280;37952;51.938;15.480;2022-07-01T00:20:54;99414.84;;;24.25;61.87
51926;BME280;37952;51.938;15.480;2022-07-01T00:23:57;99409.03;;;24.22;61.99
51926;BME280;37952;51.938;15.480;2022-07-01T00:27:00;99412.03;;;24.23;62.12
51926;BME280;37952;51.938;15.480;2022-07-01T00:30:03;99416.50;;;24.24;62.33
51926;BME280;37952;51.938;15.480;2022-07-01T00:33:07;99413.94;;;24.26;62.42
51926;BME280;37952;51.938;15.480;2022-07-01T00:36:10;99409.55;;;24.24;62.38
51926;BME280;37952;51.938;15.480;2022-07-01T00:39:13;99411.91;;;24.22;62.40
51926;BME280;37952;51.938;15.480;2022-07-01T00:42:17;99415.58;;;24.20;62.48
51926;BME280;37952;51.938;15.480;2022-07-01T00:45:21;99412.14;;;24.17;62.51
51926;BME280;37952;51.938;15.480;2022-07-01T00:48:24;99413.14;;;24.14;62.73
51926;BME280;37952;51.938;15.480;2022-07-01T00:51:28;99408.54;;;24.10;62.72
51926;BME280;37952;51.938;15.480;2022-07-01T00:54:35;99409.59;;;24.05;62.91
51926;BME280;37952;51.938;15.480;2022-07-01T00:57:40;99408.98;;;24.02;63.14
51926;BME280;37952;51.938;15.480;2022-07-01T01:00:44;99403.44;;;23.98;63.36
51926;BME280;37952;51.938;15.480;2022-07-01T01:03:47;99402.39;;;23.97;63.37
51926;BME280;37952;51.938;15.480;2022-07-01T01:06:51;99403.86;;;23.93;63.41
51926;BME280;37952;51.938;15.480;2022-07-01T01:09:54;99408.80;;;23.91;63.62
51926;BME280;37952;51.938;15.480;2022-07-01T01:12:57;99404.73;;;23.86;63.70
51926;BME280;37952;51.938;15.480;2022-07-01T01:16:01;99401.44;;;23.82;63.76
51926;BME280;37952;51.938;15.480;2022-07-01T01:19:05;99400.73;;;23.79;64.03
51926;BME280;37952;51.938;15.480;2022-07-01T01:22:09;99395.74;;;23.79;64.19
51926;BME280;37952;51.938;15.480;2022-07-01T01:25:13;99391.71;;;23.78;64.21
51926;BME280;37952;51.938;15.480;2022-07-01T01:28:17;99392.65;;;23.76;64.25
51926;BME280;37952;51.938;15.480;2022-07-01T01:31:30;99393.50;;;23.75;64.36
51926;BME280;37952;51.938;15.480;2022-07-01T01:34:35;99392.37;;;23.74;64.43
51926;BME280;37952;51.938;15.480;2022-07-01T01:37:43;99388.07;;;23.72;64.54
51926;BME280;37952;51.938;15.480;2022-07-01T01:40:49;99384.96;;;23.73;64.65
51926;BME280;37952;51.938;15.480;2022-07-01T01:43:53;99382.50;;;23.75;64.79
51926;BME280;37952;51.938;15.480;2022-07-01T01:46:56;99380.20;;;23.76;64.80
51926;BME280;37952;51.938;15.480;2022-07-01T01:49:59;99373.89;;;23.76;64.78
51926;BME280;37952;51.938;15.480;2022-07-01T01:53:03;99373.94;;;23.75;64.83
51926;BME280;37952;51.938;15.480;2022-07-01T01:56:06;99376.20;;;23.72;64.83
51926;BME280;37952;51.938;15.480;2022-07-01T01:59:09;99378.97;;;23.67;64.99
51926;BME280;37952;51.938;15.480;2022-07-01T02:02:13;99375.60;;;23.64;65.09
51926;BME280;37952;51.938;15.480;2022-07-01T02:05:17;99375.99;;;23.65;65.29
51926;BME280;37952;51.938;15.480;2022-07-01T02:08:21;99376.16;;;23.65;65.33
51926;BME280;37952;51.938;15.480;2022-07-01T02:11:24;99373.55;;;23.63;65.38
51926;BME280;37952;51.938;15.480;2022-07-01T02:14:27;99374.61;;;23.60;65.41
51926;BME280;37952;51.938;15.480;2022-07-01T02:17:31;99374.55;;;23.55;65.49
51926;BME280;37952;51.938;15.480;2022-07-01T02:20:34;99379.11;;;23.51;65.69
51926;BME280;37952;51.938;15.480;2022-07-01T02:23:40;99380.67;;;23.50;65.85
51926;BME280;37952;51.938;15.480;2022-07-01T02:26:43;99378.73;;;23.47;65.97
51926;BME280;37952;51.938;15.480;2022-07-01T02:29:46;99379.81;;;23.45;66.10
51926;BME280;37952;51.938;15.480;2022-07-01T02:32:50;99378.74;;;23.45;66.08
51926;BME280;37952;51.938;15.480;2022-07-01T02:35:53;99379.89;;;23.45;66.22
51926;BME280;37952;51.938;15.480;2022-07-01T02:38:56;99382.52;;;23.42;66.28
51926;BME280;37952;51.938;15.480;2022-07-01T02:41:59;99383.98;;;23.40;66.50
51926;BME280;37952;51.938;15.480;2022-07-01T02:45:21;99386.79;;;23.41;66.43
51926;BME280;37952;51.938;15.480;2022-07-01T02:48:24;99387.63;;;23.43;66.54
51926;BME280;37952;51.938;15.480;2022-07-01T02:51:27;99391.80;;;23.44;66.46
51926;BME280;37952;51.938;15.480;2022-07-01T02:54:30;99395.93;;;23.43;66.55
51926;BME280;37952;51.938;15.480;2022-07-01T02:57:33;99392.91;;;23.41;66.63
51926;BME280;37952;51.938;15.480;2022-07-01T03:00:36;99391.20;;;23.40;66.79
51926;BME280;37952;51.938;15.480;2022-07-01T03:03:39;99393.66;;;23.41;66.74
51926;BME280;37952;51.938;15.480;2022-07-01T03:06:42;99392.98;;;23.40;66.83
51926;BME280;37952;51.938;15.480;2022-07-01T03:09:45;99393.33;;;23.39;66.79
51926;BME280;37952;51.938;15.480;2022-07-01T03:12:49;99394.58;;;23.36;66.87
51926;BME280;37952;51.938;15.480;2022-07-01T03:15:52;99390.56;;;23.35;67.11
51926;BME280;37952;51.938;15.480;2022-07-01T03:18:55;99387.35;;;23.36;67.14
51926;BME280;37952;51.938;15.480;2022-07-01T03:21:58;99388.29;;;23.38;67.20
51926;BME280;37952;51.938;15.480;2022-07-01T03:25:02;99390.27;;;23.39;67.08
51926;BME280;37952;51.938;15.480;2022-07-01T03:28:06;99393.48;;;23.42;67.09
51926;BME280;37952;51.938;15.480;2022-07-01T03:31:09;99396.69;;;23.44;67.06
51926;BME280;37952;51.938;15.480;2022-07-01T03:34:14;99399.49;;;23.46;67.12
51926;BME280;37952;51.938;15.480;2022-07-01T03:37:19;99400.41;;;23.46;67.22
51926;BME280;37952;51.938;15.480;2022-07-01T03:40:27;99402.61;;;23.49;67.29
51926;BME280;37952;51.938;15.480;2022-07-01T03:43:31;99402.08;;;23.53;67.25
51926;BME280;37952;51.938;15.480;2022-07-01T03:46:35;99396.37;;;23.54;67.22
51926;BME280;37952;51.938;15.480;2022-07-01T03:49:44;99403.48;;;23.56;67.13
51926;BME280;37952;51.938;15.480;2022-07-01T03:52:50;99400.03;;;23.58;67.21
51926;BME280;37952;51.938;15.480;2022-07-01T03:56:13;99398.29;;;23.62;67.26
51926;BME280;37952;51.938;15.480;2022-07-01T03:59:17;99396.01;;;23.69;67.27
51926;BME280;37952;51.938;15.480;2022-07-01T04:02:20;99398.62;;;23.76;67.13
51926;BME280;37952;51.938;15.480;2022-07-01T04:05:23;99391.63;;;23.81;67.01
51926;BME280;37952;51.938;15.480;2022-07-01T04:08:28;99401.20;;;23.87;66.93
51926;BME280;37952;51.938;15.480;2022-07-01T04:11:31;99408.08;;;23.97;66.87
51926;BME280;37952;51.938;15.480;2022-07-01T04:14:35;99403.34;;;24.03;66.74
51926;BME280;37952;51.938;15.480;2022-07-01T04:17:43;99406.68;;;24.10;66.64
51926;BME280;37952;51.938;15.480;2022-07-01T04:20:46;99413.95;;;24.17;66.59
51926;BME280;37952;51.938;15.480;2022-07-01T04:24:10;99418.33;;;24.28;66.44
51926;BME280;37952;51.938;15.480;2022-07-01T04:27:13;99411.20;;;24.39;66.32
51926;BME280;37952;51.938;15.480;2022-07-01T04:30:17;99399.62;;;24.51;66.33
51926;BME280;37952;51.938;15.480;2022-07-01T04:33:20;99399.46;;;24.66;66.26
51926;BME280;37952;51.938;15.480;2022-07-01T04:36:23;99399.12;;;24.81;65.84
51926;BME280;37952;51.938;15.480;2022-07-01T04:39:26;99398.54;;;24.95;65.64
51926;BME280;37952;51.938;15.480;2022-07-01T04:42:30;99392.02;;;25.03;65.48
51926;BME280;37952;51.938;15.480;2022-07-01T04:45:37;99379.25;;;25.13;65.30
51926;BME280;37952;51.938;15.480;2022-07-01T04:48:40;99376.15;;;25.15;65.13
51926;BME280;37952;51.938;15.480;2022-07-01T04:51:43;99376.59;;;25.20;65.16
51926;BME280;37952;51.938;15.480;2022-07-01T04:54:47;99381.75;;;25.27;65.06
51926;BME280;37952;51.938;15.480;2022-07-01T04:57:50;99383.40;;;25.35;64.81
51926;BME280;37952;51.938;15.480;2022-07-01T05:00:54;99376.64;;;25.39;64.68
51926;BME280;37952;51.938;15.480;2022-07-01T05:03:58;99371.89;;;25.46;64.52
51926;BME280;37952;51.938;15.480;2022-07-01T05:07:02;99374.60;;;25.50;64.38
51926;BME280;37952;51.938;15.480;2022-07-01T05:10:06;99378.08;;;25.53;64.26
51926;BME280;37952;51.938;15.480;2022-07-01T05:13:09;99388.69;;;25.61;64.34
51926;BME280;37952;51.938;15.480;2022-07-01T05:16:12;99398.20;;;25.67;64.22
51926;BME280;37952;51.938;15.480;2022-07-01T05:19:17;99392.59;;;25.71;63.99
51926;BME280;37952;51.938;15.480;2022-07-01T05:22:39;99381.29;;;25.72;63.79
51926;BME280;37952;51.938;15.480;2022-07-01T05:25:43;99378.92;;;25.72;63.67
51926;BME280;37952;51.938;15.480;2022-07-01T05:28:48;99378.34;;;25.70;63.59
51926;BME280;37952;51.938;15.480;2022-07-01T05:31:52;99385.73;;;25.66;63.63
51926;BME280;37952;51.938;15.480;2022-07-01T05:34:55;99396.41;;;25.62;63.70
51926;BME280;37952;51.938;15.480;2022-07-01T05:38:00;99399.77;;;25.65;63.69
51926;BME280;37952;51.938;15.480;2022-07-01T05:41:04;99407.30;;;25.59;63.61
51926;BME280;37952;51.938;15.480;2022-07-01T05:44:07;99407.90;;;25.53;63.58
51926;BME280;37952;51.938;15.480;2022-07-01T05:47:16;99401.97;;;25.50;63.64
51926;BME280;37952;51.938;15.480;2022-07-01T05:50:46;99394.11;;;25.45;63.64
51926;BME280;37952;51.938;15.480;2022-07-01T05:54:07;99389.81;;;25.42;63.75
51926;BME280;37952;51.938;15.480;2022-07-01T05:57:10;99391.80;;;25.39;63.77
51926;BME280;37952;51.938;15.480;2022-07-01T06:00:14;99395.13;;;25.37;63.93
51926;BME280;37952;51.938;15.480;2022-07-01T06:03:17;99400.33;;;25.36;64.01
51926;BME280;37952;51.938;15.480;2022-07-01T06:06:20;99399.19;;;25.36;63.99
51926;BME280;37952;51.938;15.480;2022-07-01T06:09:24;99393.80;;;25.38;64.02
51926;BME280;37952;51.938;15.480;2022-07-01T06:12:27;99390.67;;;25.40;63.92
51926;BME280;37952;51.938;15.480;2022-07-01T06:15:30;99385.59;;;25.40;63.79
51926;BME280;37952;51.938;15.480;2022-07-01T06:18:40;99380.69;;;25.39;63.72
51926;BME280;37952;51.938;15.480;2022-07-01T06:21:43;99376.92;;;25.36;63.81
51926;BME280;37952;51.938;15.480;2022-07-01T06:24:47;99365.20;;;25.40;64.02
51926;BME280;37952;51.938;15.480;2022-07-01T06:27:50;99369.17;;;25.46;63.96
51926;BME280;37952;51.938;15.480;2022-07-01T06:30:53;99368.45;;;25.51;63.84
51926;BME280;37952;51.938;15.480;2022-07-01T06:33:58;99372.05;;;25.55;63.74
51926;BME280;37952;51.938;15.480;2022-07-01T06:37:01;99367.10;;;25.57;63.55
51926;BME280;37952;51.938;15.480;2022-07-01T06:40:07;99359.98;;;25.58;63.46
51926;BME280;37952;51.938;15.480;2022-07-01T06:43:10;99353.44;;;25.58;63.44
51926;BME280;37952;51.938;15.480;2022-07-01T06:46:13;99357.45;;;25.61;63.45
51926;BME280;37952;51.938;15.480;2022-07-01T06:49:17;99358.58;;;25.65;63.48
51926;BME280;37952;51.938;15.480;2022-07-01T06:52:20;99358.11;;;25.77;63.49
51926;BME280;37952;51.938;15.480;2022-07-01T06:55:23;99357.96;;;25.86;63.19
51926;BME280;37952;51.938;15.480;2022-07-01T06:58:26;99359.95;;;25.97;63.03
51926;BME280;37952;51.938;15.480;2022-07-01T07:01:30;99358.06;;;26.10;62.79
51926;BME280;37952;51.938;15.480;2022-07-01T07:04:34;99361.37;;;26.21;62.57
51926;BME280;37952;51.938;15.480;2022-07-01T07:07:58;99357.41;;;26.28;62.39
51926;BME280;37952;51.938;15.480;2022-07-01T07:11:04;99353.06;;;26.33;62.14
51926;BME280;37952;51.938;15.480;2022-07-01T07:14:08;99349.17;;;26.36;61.94
51926;BME280;37952;51.938;15.480;2022-07-01T07:17:11;99351.85;;;26.34;61.72
51926;BME280;37952;51.938;15.480;2022-07-01T07:20:14;99347.45;;;26.28;61.88
51926;BME280;37952;51.938;15.480;2022-07-01T07:27:18;99362.02;;;26.26;61.89
51926;BME280;37952;51.938;15.480;2022-07-01T07:30:22;99359.14;;;26.32;61.73
51926;BME280;37952;51.938;15.480;2022-07-01T07:33:25;99357.73;;;26.37;61.67
51926;BME280;37952;51.938;15.480;2022-07-01T07:36:28;99355.90;;;26.43;61.38
51926;BME280;37952;51.938;15.480;2022-07-01T07:39:32;99349.89;;;26.45;61.10
51926;BME280;37952;51.938;15.480;2022-07-01T07:42:39;99345.77;;;26.42;61.06
51926;BME280;37952;51.938;15.480;2022-07-01T07:45:43;99347.06;;;26.39;60.99
51926;BME280;37952;51.938;15.480;2022-07-01T07:53:40;99352.48;;;26.33;61.00
51926;BME280;37952;51.938;15.480;2022-07-01T07:56:44;99350.27;;;26.36;61.02
51926;BME280;37952;51.938;15.480;2022-07-01T08:04:42;99343.81;;;26.42;60.94
51926;BME280;37952;51.938;15.480;2022-07-01T08:07:45;99342.64;;;26.45;60.67
51926;BME280;37952;51.938;15.480;2022-07-01T08:10:49;99343.80;;;26.46;60.48
51926;BME280;37952;51.938;15.480;2022-07-01T08:13:52;99349.23;;;26.46;60.47
51926;BME280;37952;51.938;15.480;2022-07-01T08:16:55;99354.32;;;26.45;60.30
51926;BME280;37952;51.938;15.480;2022-07-01T08:19:59;99354.28;;;26.45;59.94
51926;BME280;37952;51.938;15.480;2022-07-01T08:23:02;99356.77;;;26.44;59.87
51926;BME280;37952;51.938;15.480;2022-07-01T08:26:05;99357.81;;;26.44;59.94
51926;BME280;37952;51.938;15.480;2022-07-01T08:29:08;99361.27;;;26.46;59.95
51926;BME280;37952;51.938;15.480;2022-07-01T08:32:12;99360.16;;;26.50;59.88
51926;BME280;37952;51.938;15.480;2022-07-01T08:35:15;99357.56;;;26.58;59.67
51926;BME280;37952;51.938;15.480;2022-07-01T08:38:18;99363.73;;;26.64;59.50
51926;BME280;37952;51.938;15.480;2022-07-01T08:41:25;99358.59;;;26.69;59.14
51926;BME280;37952;51.938;15.480;2022-07-01T08:49:03;99349.62;;;26.78;58.85
51926;BME280;37952;51.938;15.480;2022-07-01T08:52:07;99349.28;;;26.80;58.58
51926;BME280;37952;51.938;15.480;2022-07-01T08:55:13;99353.61;;;26.82;58.52
51926;BME280;37952;51.938;15.480;2022-07-01T08:58:16;99353.23;;;26.84;58.40
51926;BME280;37952;51.938;15.480;2022-07-01T09:01:24;99354.10;;;26.86;58.25
51926;BME280;37952;51.938;15.480;2022-07-01T09:08:27;99352.23;;;26.92;58.39
51926;BME280;37952;51.938;15.480;2022-07-01T09:11:59;99353.80;;;26.97;58.27
51926;BME280;37952;51.938;15.480;2022-07-01T09:15:39;99355.05;;;27.07;58.26
51926;BME280;37952;51.938;15.480;2022-07-01T09:18:59;99346.92;;;27.21;58.04
51926;BME280;37952;51.938;15.480;2022-07-01T09:22:04;99346.29;;;27.34;57.85
51926;BME280;37952;51.938;15.480;2022-07-01T09:25:16;99347.68;;;27.42;57.79
51926;BME280;37952;51.938;15.480;2022-07-01T09:28:23;99344.73;;;27.46;57.49
51926;BME280;37952;51.938;15.480;2022-07-01T09:31:32;99340.65;;;27.53;57.13
51926;BME280;37952;51.938;15.480;2022-07-01T09:34:45;99337.63;;;27.63;57.19
51926;BME280;37952;51.938;15.480;2022-07-01T09:37:55;99337.81;;;27.72;56.82
51926;BME280;37952;51.938;15.480;2022-07-01T09:41:00;99334.30;;;27.80;56.91
51926;BME280;37952;51.938;15.480;2022-07-01T09:44:06;99335.71;;;27.89;56.83
51926;BME280;37952;51.938;15.480;2022-07-01T09:47:09;99334.48;;;27.94;56.44
51926;BME280;37952;51.938;15.480;2022-07-01T09:50:12;99330.17;;;27.99;56.67
51926;BME280;37952;51.938;15.480;2022-07-01T09:53:15;99325.73;;;28.07;56.65
51926;BME280;37952;51.938;15.480;2022-07-01T09:56:19;99326.33;;;28.10;56.71
51926;BME280;37952;51.938;15.480;2022-07-01T09:59:22;99321.02;;;28.09;57.06
51926;BME280;37952;51.938;15.480;2022-07-01T10:02:27;99322.31;;;28.07;57.34
51926;BME280;37952;51.938;15.480;2022-07-01T10:05:56;99330.28;;;28.06;57.48
51926;BME280;37952;51.938;15.480;2022-07-01T10:12:34;99329.09;;;28.10;57.31
51926;BME280;37952;51.938;15.480;2022-07-01T10:15:40;99327.80;;;28.10;57.36
51926;BME280;37952;51.938;15.480;2022-07-01T10:18:44;99329.76;;;28.09;57.48
51926;BME280;37952;51.938;15.480;2022-07-01T10:21:47;99336.41;;;28.08;57.94
51926;BME280;37952;51.938;15.480;2022-07-01T10:24:50;99329.54;;;28.07;58.29
51926;BME280;37952;51.938;15.480;2022-07-01T10:31:36;99331.52;;;28.03;58.67
51926;BME280;37952;51.938;15.480;2022-07-01T10:34:45;99329.52;;;28.07;58.67
51926;BME280;37952;51.938;15.480;2022-07-01T10:38:01;99328.13;;;28.09;58.20
51926;BME280;37952;51.938;15.480;2022-07-01T10:41:04;99320.09;;;28.13;57.90
51926;BME280;37952;51.938;15.480;2022-07-01T10:44:14;99313.88;;;28.15;57.75
51926;BME280;37952;51.938;15.480;2022-07-01T10:47:19;99316.08;;;28.17;57.49
51926;BME280;37952;51.938;15.480;2022-07-01T10:50:22;99320.71;;;28.25;56.83
51926;BME280;37952;51.938;15.480;2022-07-01T10:53:44;99322.90;;;28.33;55.79
51926;BME280;37952;51.938;15.480;2022-07-01T10:56:55;99325.70;;;28.46;55.79
51926;BME280;37952;51.938;15.480;2022-07-01T11:03:10;99325.25;;;28.59;55.61
51926;BME280;37952;51.938;15.480;2022-07-01T11:06:15;99321.88;;;28.69;55.44
51926;BME280;37952;51.938;15.480;2022-07-01T11:09:20;99309.61;;;28.82;55.20
51926;BME280;37952;51.938;15.480;2022-07-01T11:12:23;99303.57;;;28.88;54.58
51926;BME280;37952;51.938;15.480;2022-07-01T11:15:30;99299.27;;;28.90;54.41
51926;BME280;37952;51.938;15.480;2022-07-01T11:18:33;99292.30;;;28.88;53.92
51926;BME280;37952;51.938;15.480;2022-07-01T11:21:36;99285.27;;;28.83;53.55
51926;BME280;37952;51.938;15.480;2022-07-01T11:24:39;99294.23;;;28.77;53.64
51926;BME280;37952;51.938;15.480;2022-07-01T11:27:50;99278.00;;;28.75;53.96
51926;BME280;37952;51.938;15.480;2022-07-01T11:31:00;99272.13;;;28.86;53.71
51926;BME280;37952;51.938;15.480;2022-07-01T11:34:06;99288.48;;;28.81;52.88
51926;BME280;37952;51.938;15.480;2022-07-01T11:37:10;99293.06;;;28.80;52.75
51926;BME280;37952;51.938;15.480;2022-07-01T11:40:32;99300.41;;;28.94;52.86
51926;BME280;37952;51.938;15.480;2022-07-01T11:43:38;99318.59;;;29.02;52.69
51926;BME280;37952;51.938;15.480;2022-07-01T11:46:49;99325.07;;;28.93;51.68
51926;BME280;37952;51.938;15.480;2022-07-01T11:49:53;99321.48;;;28.75;51.65
51926;BME280;37952;51.938;15.480;2022-07-01T11:52:56;99325.23;;;28.64;51.98
51926;BME280;37952;51.938;15.480;2022-07-01T11:56:00;99326.52;;;28.53;51.76
51926;BME280;37952;51.938;15.480;2022-07-01T11:59:04;99323.57;;;28.46;52.23
51926;BME280;37952;51.938;15.480;2022-07-01T12:02:08;99320.16;;;28.35;52.48
51926;BME280;37952;51.938;15.480;2022-07-01T12:05:14;99324.81;;;28.22;52.97
51926;BME280;37952;51.938;15.480;2022-07-01T12:08:17;99338.69;;;28.14;53.54
51926;BME280;37952;51.938;15.480;2022-07-01T12:11:20;99349.10;;;27.99;54.24
51926;BME280;37952;51.938;15.480;2022-07-01T12:14:29;99365.39;;;27.89;54.62
51926;BME280;37952;51.938;15.480;2022-07-01T12:17:33;99362.92;;;27.83;54.60
51926;BME280;37952;51.938;15.480;2022-07-01T12:20:47;99372.73;;;27.50;54.98
51926;BME280;37952;51.938;15.480;2022-07-01T12:24:13;99375.27;;;27.33;55.42
51926;BME280;37952;51.938;15.480;2022-07-01T12:27:20;99392.58;;;27.07;55.78
51926;BME280;37952;51.938;15.480;2022-07-01T12:30:24;99389.79;;;27.02;55.68
51926;BME280;37952;51.938;15.480;2022-07-01T12:33:47;99417.38;;;26.78;55.99
51926;BME280;37952;51.938;15.480;2022-07-01T12:36:51;99441.52;;;26.45;56.31
51926;BME280;37952;51.938;15.480;2022-07-01T12:42:58;99473.45;;;26.27;56.69
51926;BME280;37952;51.938;15.480;2022-07-01T12:46:26;99482.52;;;26.20;56.71
51926;BME280;37952;51.938;15.480;2022-07-01T12:49:30;99501.02;;;25.98;57.01
51926;BME280;37952;51.938;15.480;2022-07-01T12:52:33;99507.04;;;25.64;57.51
51926;BME280;37952;51.938;15.480;2022-07-01T12:55:46;99519.06;;;25.50;57.64
51926;BME280;37952;51.938;15.480;2022-07-01T12:58:50;99522.17;;;25.35;57.70
51926;BME280;37952;51.938;15.480;2022-07-01T13:01:55;99516.72;;;25.13;57.81
51926;BME280;37952;51.938;15.480;2022-07-01T13:05:03;99528.98;;;24.90;58.24
51926;BME280;37952;51.938;15.480;2022-07-01T13:08:07;99520.33;;;24.72;58.39
51926;BME280;37952;51.938;15.480;2022-07-01T13:11:11;99533.47;;;24.60;58.51
51926;BME280;37952;51.938;15.480;2022-07-01T13:14:14;99530.33;;;24.57;58.12
51926;BME280;37952;51.938;15.480;2022-07-01T13:17:17;99539.98;;;24.38;58.41
51926;BME280;37952;51.938;15.480;2022-07-01T13:20:46;99539.29;;;24.29;58.45
51926;BME280;37952;51.938;15.480;2022-07-01T13:23:49;99556.86;;;24.25;58.50
51926;BME280;37952;51.938;15.480;2022-07-01T13:27:12;99570.20;;;24.07;58.96
51926;BME280;37952;51.938;15.480;2022-07-01T13:30:15;99582.10;;;23.96;58.99
51926;BME280;37952;51.938;15.480;2022-07-01T13:33:19;99577.17;;;23.92;59.11
51926;BME280;37952;51.938;15.480;2022-07-01T13:36:21;99581.23;;;23.91;59.21
51926;BME280;37952;51.938;15.480;2022-07-01T13:39:25;99587.52;;;23.91;58.85
51926;BME280;37952;51.938;15.480;2022-07-01T13:42:28;99606.40;;;23.84;58.64
51926;BME280;37952;51.938;15.480;2022-07-01T13:45:31;99602.77;;;23.75;58.85
51926;BME280;37952;51.938;15.480;2022-07-01T13:48:34;99608.66;;;23.76;58.67
51926;BME280;37952;51.938;15.480;2022-07-01T13:51:37;99629.35;;;23.73;58.81
51926;BME280;37952;51.938;15.480;2022-07-01T13:54:40;99638.22;;;23.77;58.54
51926;BME280;37952;51.938;15.480;2022-07-01T13:57:45;99638.92;;;23.83;58.34
51926;BME280;37952;51.938;15.480;2022-07-01T14:00:49;99649.48;;;23.88;57.95
51926;BME280;37952;51.938;15.480;2022-07-01T14:03:52;99645.90;;;23.82;57.93
51926;BME280;37952;51.938;15.480;2022-07-01T14:07:00;99653.60;;;23.81;57.48
51926;BME280;37952;51.938;15.480;2022-07-01T14:10:05;99618.41;;;23.77;57.45
51926;BME280;37952;51.938;15.480;2022-07-01T14:13:10;99605.71;;;23.86;57.33
51926;BME280;37952;51.938;15.480;2022-07-01T14:16:13;99605.97;;;23.89;56.91
51926;BME280;37952;51.938;15.480;2022-07-01T14:19:17;99590.90;;;23.90;57.02
51926;BME280;37952;51.938;15.480;2022-07-01T14:22:20;99580.39;;;24.00;57.11
51926;BME280;37952;51.938;15.480;2022-07-01T14:25:23;99584.22;;;24.03;56.83
51926;BME280;37952;51.938;15.480;2022-07-01T14:28:27;99579.52;;;24.09;56.87
51926;BME280;37952;51.938;15.480;2022-07-01T14:31:30;99586.09;;;24.12;56.56
51926;BME280;37952;51.938;15.480;2022-07-01T14:34:37;99588.40;;;24.13;56.60
51926;BME280;37952;51.938;15.480;2022-07-01T14:37:41;99611.46;;;23.90;56.62
51926;BME280;37952;51.938;15.480;2022-07-01T14:40:46;99621.52;;;23.73;56.70
51926;BME280;37952;51.938;15.480;2022-07-01T14:43:51;99630.44;;;23.57;57.02
51926;BME280;37952;51.938;15.480;2022-07-01T14:46:54;99645.83;;;23.48;57.29
51926;BME280;37952;51.938;15.480;2022-07-01T14:49:59;99650.36;;;23.47;57.36
51926;BME280;37952;51.938;15.480;2022-07-01T14:53:03;99632.13;;;23.27;57.90
51926;BME280;37952;51.938;15.480;2022-07-01T14:56:07;99619.10;;;23.07;58.42
51926;BME280;37952;51.938;15.480;2022-07-01T14:59:11;99608.19;;;22.91;58.70
51926;BME280;37952;51.938;15.480;2022-07-01T15:02:15;99607.29;;;22.78;58.99
51926;BME280;37952;51.938;15.480;2022-07-01T15:05:18;99613.45;;;22.73;59.27
51926;BME280;37952;51.938;15.480;2022-07-01T15:08:26;99644.19;;;22.68;59.39
51926;BME280;37952;51.938;15.480;2022-07-01T15:11:29;99641.73;;;22.60;59.52
51926;BME280;37952;51.938;15.480;2022-07-01T15:14:32;99656.98;;;22.50;59.72
51926;BME280;37952;51.938;15.480;2022-07-01T15:17:41;99650.78;;;22.41;59.97
51926;BME280;37952;51.938;15.480;2022-07-01T15:20:45;99644.98;;;22.45;59.82
51926;BME280;37952;51.938;15.480;2022-07-01T15:23:48;99639.92;;;22.53;59.72
51926;BME280;37952;51.938;15.480;2022-07-01T15:26:52;99656.02;;;22.54;59.52
51926;BME280;37952;51.938;15.480;2022-07-01T15:29:58;99653.21;;;22.50;59.65
51926;BME280;37952;51.938;15.480;2022-07-01T15:33:02;99673.34;;;22.43;60.40
51926;BME280;37952;51.938;15.480;2022-07-01T15:36:06;99695.56;;;22.53;60.41
51926;BME280;37952;51.938;15.480;2022-07-01T15:39:09;99705.95;;;22.57;60.35
51926;BME280;37952;51.938;15.480;2022-07-01T15:42:15;99727.60;;;22.60;60.25
51926;BME280;37952;51.938;15.480;2022-07-01T15:45:22;99738.65;;;22.50;60.36
51926;BME280;37952;51.938;15.480;2022-07-01T15:48:28;99733.38;;;22.30;60.84
51926;BME280;37952;51.938;15.480;2022-07-01T15:51:31;99732.81;;;22.24;60.84
51926;BME280;37952;51.938;15.480;2022-07-01T15:54:35;99749.99;;;22.11;61.06
51926;BME280;37952;51.938;15.480;2022-07-01T15:57:40;99752.86;;;22.03;61.23
51926;BME280;37952;51.938;15.480;2022-07-01T16:00:45;99748.94;;;21.86;61.54
51926;BME280;37952;51.938;15.480;2022-07-01T16:03:51;99746.42;;;21.79;61.54
51926;BME280;37952;51.938;15.480;2022-07-01T16:07:00;99758.09;;;21.75;61.54
51926;BME280;37952;51.938;15.480;2022-07-01T16:10:05;99762.13;;;21.71;61.54
51926;BME280;37952;51.938;15.480;2022-07-01T16:13:15;99770.54;;;21.58;62.12
51926;BME280;37952;51.938;15.480;2022-07-01T16:16:26;99786.64;;;21.53;61.94
51926;BME280;37952;51.938;15.480;2022-07-01T16:19:34;99787.71;;;21.38;62.01
51926;BME280;37952;51.938;15.480;2022-07-01T16:22:46;99792.39;;;21.15;62.53
51926;BME280;37952;51.938;15.480;2022-07-01T16:25:51;99797.50;;;21.18;62.25
51926;BME280;37952;51.938;15.480;2022-07-01T16:28:55;99808.64;;;21.02;62.91
51926;BME280;37952;51.938;15.480;2022-07-01T16:32:01;99803.71;;;20.78;63.56
51926;BME280;37952;51.938;15.480;2022-07-01T16:35:05;99826.17;;;20.56;64.08
51926;BME280;37952;51.938;15.480;2022-07-01T16:38:12;99819.66;;;20.32;64.87
51926;BME280;37952;51.938;15.480;2022-07-01T16:44:46;99847.30;;;20.30;64.69
51926;BME280;37952;51.938;15.480;2022-07-01T16:47:55;99825.77;;;20.08;64.95
51926;BME280;37952;51.938;15.480;2022-07-01T16:51:02;99841.85;;;20.12;65.07